Terminal Aerodrome Forecast
Issued by NWS

Home | Current Version | Previous Version | Text Only | Print | Product List | Glossary On
Versions: 1 2 3 4 5 6 7 8 9 10 11 12 13 14 15
000
FTUS45 KBOU 141737
TAFAPA
TAF
KAPA 141737Z 1418/1518 22005KT P6SM SCT050 SCT100
     FM142000 36014KT P6SM SCT060 BKN120
     FM150100 05008KT P6SM FEW070 SCT100 BKN200
     FM150300 14007KT P6SM FEW120 SCT220
     FM150600 19008KT P6SM FEW220
     FM151600 23007KT P6SM SCT220=

USA.gov is the U.S. government's official web portal to all federal, state and local government web resources and services.